LEBL Airport Information

Runway Information
Runway 02 Length 8333 ft width 148 ft
Elevation 7 ft Threshold 131 ft Heading 19
Runway 20 Length 8333 ft Width 148 ft
Elevation 12 ft Threshold 0 ft Heading 199
Runway 07L Length 11654 ft width 148 ft
Elevation 8 ft Threshold 295 ft Heading 66
Runway 25R Length 11654 ft Width 148 ft
Elevation 10 ft Threshold 0 ft Heading 246
Runway 07R Length 8727 ft width 197 ft
Elevation 8 ft Threshold 0 ft Heading 66
Runway 25L Length 8727 ft Width 197 ft
Elevation 8 ft Threshold 0 ft Heading 246
Airport Frequencies
Type APP Name APP Frequency 119.1 MHZ
Type ATIS Name ATIS Frequency 118.65 MHZ
Type CLD Name CLNC DEL Frequency 121.8 MHZ
Type GND Name GND Frequency 121.65 MHZ
Type TWR Name TWR Frequency 118.1 MHZ
Airport Navaids
Type VOR-DME Name Barcelona Frequency 116700 KHZ
Type VOR-DME Name El Prat Frequency 114300 KHZ
Type VOR-DME Name Sabadell Frequency 112000 KHZ
Type NDB Name Villanueva Frequency 380 KHZ
Airport Weather Information & NOTAM
ADDS - METARS form results

(0743 UTC 29 January 2020)
Data provider http://aviationweather.gov/metar/data/
 
METAR text: LEBL 290730Z 34005KT 300V020 9999 FEW040 08/06 Q1021 NOSIG
Conditions at: LEBL (BARCELONA AIRPOR, ES) observed 0730 UTC 29 January 2020
Temperature: 8.0°C (46°F)
Dewpoint: 6.0°C (43°F) [RH = 87%]
Pressure (altimeter): 30.15 inches Hg (1021.0 mb)
Winds: from the NNW (340 degrees) at 6 MPH (5 knots; 2.6 m/s)
Visibility: 6 or more miles (10+ km)
Ceiling: at least 12,000 feet AGL
Clouds: few clouds at 4000 feet AGL
Weather: no significant weather observed at this time

METAR text: LEBL 290700Z 33003KT 300V040 9999 FEW040 08/06 Q1021 NOSIG
Conditions at: LEBL (BARCELONA AIRPOR, ES) observed 0700 UTC 29 January 2020
Temperature: 8.0°C (46°F)
Dewpoint: 6.0°C (43°F) [RH = 87%]
Pressure (altimeter): 30.15 inches Hg (1021.0 mb)
Winds: from the NNW (330 degrees) at 3 MPH (3 knots; 1.5 m/s)
Visibility: 6 or more miles (10+ km)
Ceiling: at least 12,000 feet AGL
Clouds: few clouds at 4000 feet AGL
Weather: no significant weather observed at this time

Forecast for: LEBL (BARCELONA AIRPOR, ES)
Text: TAF LEBL 290500Z 2906/3006 34005KT 9999 FEW040 TX16/2913Z TN07/2907Z
Forecast period: 0600 to 1200 UTC 29 January 2020
Forecast type: FROM: standard forecast or significant change
Winds: from the NNW (340 degrees) at 6 MPH (5 knots; 2.6 m/s)
Visibility: 6 or more miles 10+ km)
Ceiling: at least 12,000 feet AGL
Clouds: few clouds at 4000 feet AGL
Weather: no significant weather forecast for this period
Text: BECMG 2912/2914 20007KT
Forecast period: 1200 UTC 29 January 2020 to 0600 UTC 30 January 2020
Forecast type: BECOMING: Conditions expected to become as follows by 1400 UTC 29 January 2020
Winds: from the SSW (200 degrees) at 8 MPH (7 knots; 3.6 m/s)
Visibility: 6 or more miles 10+ km)
Ceiling: at least 12,000 feet AGL
Clouds: few clouds at 4000 feet AGL
Weather: no significant weather forecast for this period